sensor_id;sensor_type;location;lat;lon;timestamp;P1;durP1;ratioP1;P2;durP2;ratioP2
24277;SDS011;12394;42.692;23.314;2022-07-06T00:01:15;17.37;;;15.07;;
24277;SDS011;12394;42.692;23.314;2022-07-06T00:03:41;16.50;;;14.70;;
24277;SDS011;12394;42.692;23.314;2022-07-06T00:06:06;22.20;;;16.77;;
24277;SDS011;12394;42.692;23.314;2022-07-06T00:08:31;17.73;;;15.47;;
24277;SDS011;12394;42.692;23.314;2022-07-06T00:10:57;17.70;;;15.80;;
24277;SDS011;12394;42.692;23.314;2022-07-06T00:13:22;17.53;;;14.83;;
24277;SDS011;12394;42.692;23.314;2022-07-06T00:15:47;19.97;;;17.77;;
24277;SDS011;12394;42.692;23.314;2022-07-06T00:18:12;19.83;;;17.80;;
24277;SDS011;12394;42.692;23.314;2022-07-06T00:20:38;23.17;;;16.80;;
24277;SDS011;12394;42.692;23.314;2022-07-06T00:23:03;20.83;;;17.67;;
24277;SDS011;12394;42.692;23.314;2022-07-06T00:25:28;21.00;;;17.03;;
24277;SDS011;12394;42.692;23.314;2022-07-06T00:27:53;24.67;;;16.63;;
24277;SDS011;12394;42.692;23.314;2022-07-06T00:30:19;18.00;;;16.10;;
24277;SDS011;12394;42.692;23.314;2022-07-06T00:32:44;18.43;;;15.03;;
24277;SDS011;12394;42.692;23.314;2022-07-06T00:35:09;21.67;;;15.67;;
24277;SDS011;12394;42.692;23.314;2022-07-06T00:37:34;18.23;;;15.57;;
24277;SDS011;12394;42.692;23.314;2022-07-06T00:40:00;23.00;;;17.27;;
24277;SDS011;12394;42.692;23.314;2022-07-06T00:42:25;21.10;;;18.50;;
24277;SDS011;12394;42.692;23.314;2022-07-06T00:44:50;26.33;;;20.87;;
24277;SDS011;12394;42.692;23.314;2022-07-06T00:47:16;25.43;;;20.60;;
24277;SDS011;12394;42.692;23.314;2022-07-06T00:49:41;23.70;;;20.93;;
24277;SDS011;12394;42.692;23.314;2022-07-06T00:52:25;26.30;;;19.83;;
24277;SDS011;12394;42.692;23.314;2022-07-06T00:54:50;23.43;;;21.07;;
24277;SDS011;12394;42.692;23.314;2022-07-06T00:57:15;24.40;;;21.90;;
24277;SDS011;12394;42.692;23.314;2022-07-06T00:59:40;25.93;;;21.30;;
24277;SDS011;12394;42.692;23.314;2022-07-06T01:02:07;22.20;;;19.53;;
24277;SDS011;12394;42.692;23.314;2022-07-06T01:04:32;24.70;;;22.27;;
24277;SDS011;12394;42.692;23.314;2022-07-06T01:06:58;23.23;;;20.77;;
24277;SDS011;12394;42.692;23.314;2022-07-06T01:09:23;27.83;;;22.43;;
24277;SDS011;12394;42.692;23.314;2022-07-06T01:11:48;24.77;;;21.10;;
24277;SDS011;12394;42.692;23.314;2022-07-06T01:14:14;29.67;;;23.87;;
24277;SDS011;12394;42.692;23.314;2022-07-06T01:16:39;25.43;;;20.80;;
24277;SDS011;12394;42.692;23.314;2022-07-06T01:19:04;26.13;;;20.20;;
24277;SDS011;12394;42.692;23.314;2022-07-06T01:21:29;26.60;;;20.67;;
24277;SDS011;12394;42.692;23.314;2022-07-06T01:23:55;23.67;;;19.77;;
24277;SDS011;12394;42.692;23.314;2022-07-06T01:26:20;27.97;;;19.50;;
24277;SDS011;12394;42.692;23.314;2022-07-06T01:28:46;24.43;;;18.40;;
24277;SDS011;12394;42.692;23.314;2022-07-06T01:31:18;20.63;;;18.33;;
24277;SDS011;12394;42.692;23.314;2022-07-06T01:33:44;22.20;;;17.50;;
24277;SDS011;12394;42.692;23.314;2022-07-06T01:36:09;22.80;;;18.17;;
24277;SDS011;12394;42.692;23.314;2022-07-06T01:38:47;25.13;;;18.27;;
24277;SDS011;12394;42.692;23.314;2022-07-06T01:41:12;23.87;;;17.50;;
24277;SDS011;12394;42.692;23.314;2022-07-06T01:43:38;19.87;;;16.57;;
24277;SDS011;12394;42.692;23.314;2022-07-06T01:46:04;20.57;;;17.50;;
24277;SDS011;12394;42.692;23.314;2022-07-06T01:48:29;20.67;;;16.60;;
24277;SDS011;12394;42.692;23.314;2022-07-06T01:50:54;20.43;;;16.50;;
24277;SDS011;12394;42.692;23.314;2022-07-06T01:53:19;21.53;;;15.67;;
24277;SDS011;12394;42.692;23.314;2022-07-06T01:55:45;17.57;;;13.83;;
24277;SDS011;12394;42.692;23.314;2022-07-06T01:58:10;18.73;;;13.97;;
24277;SDS011;12394;42.692;23.314;2022-07-06T02:00:35;14.20;;;12.70;;
24277;SDS011;12394;42.692;23.314;2022-07-06T02:03:00;16.47;;;13.63;;
24277;SDS011;12394;42.692;23.314;2022-07-06T02:05:26;15.37;;;12.67;;
24277;SDS011;12394;42.692;23.314;2022-07-06T02:07:51;17.20;;;12.87;;
24277;SDS011;12394;42.692;23.314;2022-07-06T02:10:16;15.53;;;12.43;;
24277;SDS011;12394;42.692;23.314;2022-07-06T02:12:42;16.00;;;13.53;;
24277;SDS011;12394;42.692;23.314;2022-07-06T02:15:07;17.90;;;12.97;;
24277;SDS011;12394;42.692;23.314;2022-07-06T02:17:32;16.40;;;13.70;;
24277;SDS011;12394;42.692;23.314;2022-07-06T02:19:58;18.27;;;12.60;;
24277;SDS011;12394;42.692;23.314;2022-07-06T02:22:23;15.80;;;12.60;;
24277;SDS011;12394;42.692;23.314;2022-07-06T02:24:48;14.37;;;12.67;;
24277;SDS011;12394;42.692;23.314;2022-07-06T02:27:14;12.70;;;11.47;;
24277;SDS011;12394;42.692;23.314;2022-07-06T02:29:39;13.20;;;11.87;;
24277;SDS011;12394;42.692;23.314;2022-07-06T02:32:04;16.20;;;12.80;;
24277;SDS011;12394;42.692;23.314;2022-07-06T02:34:29;14.60;;;13.10;;
24277;SDS011;12394;42.692;23.314;2022-07-06T02:36:55;14.17;;;12.13;;
24277;SDS011;12394;42.692;23.314;2022-07-06T02:39:20;14.97;;;11.90;;
24277;SDS011;12394;42.692;23.314;2022-07-06T02:41:45;12.83;;;11.53;;
24277;SDS011;12394;42.692;23.314;2022-07-06T02:44:10;19.03;;;12.43;;
24277;SDS011;12394;42.692;23.314;2022-07-06T02:46:36;12.90;;;11.60;;
24277;SDS011;12394;42.692;23.314;2022-07-06T02:49:01;12.07;;;10.83;;
24277;SDS011;12394;42.692;23.314;2022-07-06T02:51:26;16.63;;;11.90;;
24277;SDS011;12394;42.692;23.314;2022-07-06T02:53:51;15.13;;;13.43;;
24277;SDS011;12394;42.692;23.314;2022-07-06T02:56:17;14.47;;;12.63;;
24277;SDS011;12394;42.692;23.314;2022-07-06T02:58:42;13.80;;;12.03;;
24277;SDS011;12394;42.692;23.314;2022-07-06T03:01:07;13.10;;;11.73;;
24277;SDS011;12394;42.692;23.314;2022-07-06T03:03:32;15.87;;;12.93;;
24277;SDS011;12394;42.692;23.314;2022-07-06T03:05:58;13.80;;;12.37;;
24277;SDS011;12394;42.692;23.314;2022-07-06T03:08:23;15.80;;;14.23;;
24277;SDS011;12394;42.692;23.314;2022-07-06T03:10:48;16.20;;;13.57;;
24277;SDS011;12394;42.692;23.314;2022-07-06T03:13:13;18.40;;;14.03;;
24277;SDS011;12394;42.692;23.314;2022-07-06T03:15:39;19.20;;;13.83;;
24277;SDS011;12394;42.692;23.314;2022-07-06T03:18:04;15.27;;;12.97;;
24277;SDS011;12394;42.692;23.314;2022-07-06T03:20:29;16.43;;;13.33;;
24277;SDS011;12394;42.692;23.314;2022-07-06T03:22:55;15.47;;;12.70;;
24277;SDS011;12394;42.692;23.314;2022-07-06T03:25:20;14.13;;;12.70;;
24277;SDS011;12394;42.692;23.314;2022-07-06T03:27:45;21.00;;;14.50;;
24277;SDS011;12394;42.692;23.314;2022-07-06T03:30:10;14.07;;;11.63;;
24277;SDS011;12394;42.692;23.314;2022-07-06T03:32:36;15.60;;;10.47;;
24277;SDS011;12394;42.692;23.314;2022-07-06T03:35:01;13.17;;;10.23;;
24277;SDS011;12394;42.692;23.314;2022-07-06T03:37:26;11.90;;;9.90;;
24277;SDS011;12394;42.692;23.314;2022-07-06T03:39:52;14.23;;;9.17;;
24277;SDS011;12394;42.692;23.314;2022-07-06T03:42:17;11.90;;;8.47;;
24277;SDS011;12394;42.692;23.314;2022-07-06T03:44:42;12.10;;;8.33;;
24277;SDS011;12394;42.692;23.314;2022-07-06T03:47:07;9.73;;;8.77;;
24277;SDS011;12394;42.692;23.314;2022-07-06T03:49:32;11.50;;;8.60;;
24277;SDS011;12394;42.692;23.314;2022-07-06T03:51:58;11.43;;;8.90;;
24277;SDS011;12394;42.692;23.314;2022-07-06T03:54:23;14.57;;;8.63;;
24277;SDS011;12394;42.692;23.314;2022-07-06T03:56:48;11.97;;;8.37;;
24277;SDS011;12394;42.692;23.314;2022-07-06T03:59:13;10.73;;;8.47;;
24277;SDS011;12394;42.692;23.314;2022-07-06T04:01:39;12.00;;;9.23;;
24277;SDS011;12394;42.692;23.314;2022-07-06T04:04:04;12.40;;;8.47;;
24277;SDS011;12394;42.692;23.314;2022-07-06T04:06:29;11.97;;;8.30;;
24277;SDS011;12394;42.692;23.314;2022-07-06T04:08:55;11.87;;;8.40;;
24277;SDS011;12394;42.692;23.314;2022-07-06T04:11:20;9.60;;;7.97;;
24277;SDS011;12394;42.692;23.314;2022-07-06T04:13:46;9.73;;;8.03;;
24277;SDS011;12394;42.692;23.314;2022-07-06T04:16:11;9.10;;;7.10;;
24277;SDS011;12394;42.692;23.314;2022-07-06T04:18:37;12.03;;;9.00;;
24277;SDS011;12394;42.692;23.314;2022-07-06T04:21:02;12.10;;;7.87;;
24277;SDS011;12394;42.692;23.314;2022-07-06T04:23:27;11.70;;;9.30;;
24277;SDS011;12394;42.692;23.314;2022-07-06T04:25:53;11.53;;;7.70;;
24277;SDS011;12394;42.692;23.314;2022-07-06T04:28:18;12.30;;;7.73;;
24277;SDS011;12394;42.692;23.314;2022-07-06T04:30:43;9.13;;;8.07;;
24277;SDS011;12394;42.692;23.314;2022-07-06T04:33:09;11.23;;;7.90;;
24277;SDS011;12394;42.692;23.314;2022-07-06T04:35:34;9.57;;;8.27;;
24277;SDS011;12394;42.692;23.314;2022-07-06T04:37:59;11.87;;;9.23;;
24277;SDS011;12394;42.692;23.314;2022-07-06T04:40:24;8.87;;;7.67;;
24277;SDS011;12394;42.692;23.314;2022-07-06T04:42:49;13.27;;;9.30;;
24277;SDS011;12394;42.692;23.314;2022-07-06T04:45:15;12.40;;;9.73;;
24277;SDS011;12394;42.692;23.314;2022-07-06T04:47:40;11.20;;;9.30;;
24277;SDS011;12394;42.692;23.314;2022-07-06T04:50:05;11.13;;;10.00;;
24277;SDS011;12394;42.692;23.314;2022-07-06T04:52:31;14.83;;;10.50;;
24277;SDS011;12394;42.692;23.314;2022-07-06T04:54:56;13.93;;;10.97;;
24277;SDS011;12394;42.692;23.314;2022-07-06T04:57:21;17.80;;;12.00;;
24277;SDS011;12394;42.692;23.314;2022-07-06T04:59:47;16.40;;;11.60;;
24277;SDS011;12394;42.692;23.314;2022-07-06T05:02:12;16.97;;;12.13;;
24277;SDS011;12394;42.692;23.314;2022-07-06T05:04:37;15.20;;;11.90;;
24277;SDS011;12394;42.692;23.314;2022-07-06T05:07:03;18.73;;;12.80;;
24277;SDS011;12394;42.692;23.314;2022-07-06T05:09:28;16.60;;;13.13;;
24277;SDS011;12394;42.692;23.314;2022-07-06T05:11:53;16.57;;;13.27;;
24277;SDS011;12394;42.692;23.314;2022-07-06T05:14:19;20.77;;;13.93;;
24277;SDS011;12394;42.692;23.314;2022-07-06T05:16:44;19.40;;;14.77;;
24277;SDS011;12394;42.692;23.314;2022-07-06T05:19:09;16.67;;;13.60;;
24277;SDS011;12394;42.692;23.314;2022-07-06T05:21:34;15.90;;;14.17;;
24277;SDS011;12394;42.692;23.314;2022-07-06T05:24:00;15.57;;;13.60;;
24277;SDS011;12394;42.692;23.314;2022-07-06T05:26:25;35.20;;;14.47;;
24277;SDS011;12394;42.692;23.314;2022-07-06T05:28:50;18.17;;;13.30;;
24277;SDS011;12394;42.692;23.314;2022-07-06T05:31:15;16.30;;;14.37;;
24277;SDS011;12394;42.692;23.314;2022-07-06T05:33:41;17.50;;;14.43;;
24277;SDS011;12394;42.692;23.314;2022-07-06T05:36:06;17.53;;;12.67;;
24277;SDS011;12394;42.692;23.314;2022-07-06T05:38:32;16.60;;;12.60;;
24277;SDS011;12394;42.692;23.314;2022-07-06T05:40:57;14.70;;;12.77;;
24277;SDS011;12394;42.692;23.314;2022-07-06T05:43:23;16.30;;;12.43;;
24277;SDS011;12394;42.692;23.314;2022-07-06T05:45:48;17.23;;;12.17;;
24277;SDS011;12394;42.692;23.314;2022-07-06T05:48:13;15.60;;;11.63;;
24277;SDS011;12394;42.692;23.314;2022-07-06T05:50:57;18.30;;;11.83;;
24277;SDS011;12394;42.692;23.314;2022-07-06T05:53:22;14.77;;;11.27;;
24277;SDS011;12394;42.692;23.314;2022-07-06T05:55:48;17.30;;;12.00;;
24277;SDS011;12394;42.692;23.314;2022-07-06T05:58:14;15.27;;;11.20;;
24277;SDS011;12394;42.692;23.314;2022-07-06T06:00:39;15.83;;;11.70;;
24277;SDS011;12394;42.692;23.314;2022-07-06T06:03:05;16.13;;;12.90;;
24277;SDS011;12394;42.692;23.314;2022-07-06T06:05:30;13.40;;;11.90;;
24277;SDS011;12394;42.692;23.314;2022-07-06T06:07:55;14.53;;;11.93;;
24277;SDS011;12394;42.692;23.314;2022-07-06T06:10:21;17.07;;;11.97;;
24277;SDS011;12394;42.692;23.314;2022-07-06T06:12:47;14.63;;;12.10;;
24277;SDS011;12394;42.692;23.314;2022-07-06T06:15:12;14.50;;;11.50;;
24277;SDS011;12394;42.692;23.314;2022-07-06T06:17:38;17.93;;;12.10;;
24277;SDS011;12394;42.692;23.314;2022-07-06T06:20:04;13.23;;;11.07;;
24277;SDS011;12394;42.692;23.314;2022-07-06T06:22:31;16.70;;;11.87;;
24277;SDS011;12394;42.692;23.314;2022-07-06T06:24:57;16.97;;;11.13;;
24277;SDS011;12394;42.692;23.314;2022-07-06T06:27:22;13.53;;;12.13;;
24277;SDS011;12394;42.692;23.314;2022-07-06T06:29:47;15.13;;;11.87;;
24277;SDS011;12394;42.692;23.314;2022-07-06T06:32:13;13.83;;;11.23;;
24277;SDS011;12394;42.692;23.314;2022-07-06T06:34:38;13.83;;;11.87;;
24277;SDS011;12394;42.692;23.314;2022-07-06T06:37:04;13.97;;;12.33;;
24277;SDS011;12394;42.692;23.314;2022-07-06T06:39:29;14.40;;;12.00;;
24277;SDS011;12394;42.692;23.314;2022-07-06T06:41:55;15.80;;;12.67;;
24277;SDS011;12394;42.692;23.314;2022-07-06T06:44:20;14.27;;;12.60;;
24277;SDS011;12394;42.692;23.314;2022-07-06T06:46:48;18.57;;;12.77;;
24277;SDS011;12394;42.692;23.314;2022-07-06T06:49:13;13.47;;;12.13;;
24277;SDS011;12394;42.692;23.314;2022-07-06T06:51:38;17.40;;;12.47;;
24277;SDS011;12394;42.692;23.314;2022-07-06T06:54:04;15.67;;;11.83;;
24277;SDS011;12394;42.692;23.314;2022-07-06T06:56:30;20.47;;;13.27;;
24277;SDS011;12394;42.692;23.314;2022-07-06T06:58:55;15.80;;;12.00;;
24277;SDS011;12394;42.692;23.314;2022-07-06T07:01:20;14.33;;;11.73;;
24277;SDS011;12394;42.692;23.314;2022-07-06T07:03:46;15.23;;;12.77;;
24277;SDS011;12394;42.692;23.314;2022-07-06T07:06:11;14.50;;;11.57;;
24277;SDS011;12394;42.692;23.314;2022-07-06T07:08:36;18.77;;;12.07;;
24277;SDS011;12394;42.692;23.314;2022-07-06T07:11:01;13.00;;;11.60;;
24277;SDS011;12394;42.692;23.314;2022-07-06T07:13:27;16.50;;;12.67;;
24277;SDS011;12394;42.692;23.314;2022-07-06T07:15:52;13.57;;;11.80;;
24277;SDS011;12394;42.692;23.314;2022-07-06T07:18:17;16.00;;;11.90;;
24277;SDS011;12394;42.692;23.314;2022-07-06T07:20:43;14.30;;;12.03;;
24277;SDS011;12394;42.692;23.314;2022-07-06T07:23:08;17.30;;;12.90;;
24277;SDS011;12394;42.692;23.314;2022-07-06T07:25:33;24.23;;;14.40;;
24277;SDS011;12394;42.692;23.314;2022-07-06T07:27:59;22.17;;;17.80;;
24277;SDS011;12394;42.692;23.314;2022-07-06T07:30:24;14.73;;;12.73;;
24277;SDS011;12394;42.692;23.314;2022-07-06T07:32:49;14.13;;;12.53;;
24277;SDS011;12394;42.692;23.314;2022-07-06T07:35:15;16.67;;;14.50;;
24277;SDS011;12394;42.692;23.314;2022-07-06T07:37:40;17.33;;;12.73;;
24277;SDS011;12394;42.692;23.314;2022-07-06T07:40:05;12.70;;;11.27;;
24277;SDS011;12394;42.692;23.314;2022-07-06T07:42:31;19.93;;;13.23;;
24277;SDS011;12394;42.692;23.314;2022-07-06T07:44:56;14.60;;;11.47;;
24277;SDS011;12394;42.692;23.314;2022-07-06T07:47:21;17.37;;;12.77;;
24277;SDS011;12394;42.692;23.314;2022-07-06T07:49:47;15.97;;;12.03;;
24277;SDS011;12394;42.692;23.314;2022-07-06T07:52:12;18.80;;;12.37;;
24277;SDS011;12394;42.692;23.314;2022-07-06T07:54:37;19.57;;;14.83;;
24277;SDS011;12394;42.692;23.314;2022-07-06T07:57:03;14.77;;;10.57;;
24277;SDS011;12394;42.692;23.314;2022-07-06T07:59:28;12.87;;;11.33;;
24277;SDS011;12394;42.692;23.314;2022-07-06T08:01:54;13.70;;;11.67;;
24277;SDS011;12394;42.692;23.314;2022-07-06T08:04:19;16.10;;;12.33;;
24277;SDS011;12394;42.692;23.314;2022-07-06T08:06:44;20.00;;;12.40;;
24277;SDS011;12394;42.692;23.314;2022-07-06T08:09:09;17.30;;;13.50;;
24277;SDS011;12394;42.692;23.314;2022-07-06T08:11:35;20.30;;;12.60;;
24277;SDS011;12394;42.692;23.314;2022-07-06T08:14:00;18.23;;;13.37;;
24277;SDS011;12394;42.692;23.314;2022-07-06T08:16:26;17.37;;;12.20;;
24277;SDS011;12394;42.692;23.314;2022-07-06T08:18:51;12.83;;;11.23;;
24277;SDS011;12394;42.692;23.314;2022-07-06T08:21:16;12.20;;;10.33;;
24277;SDS011;12394;42.692;23.314;2022-07-06T08:23:42;19.07;;;12.03;;
24277;SDS011;12394;42.692;23.314;2022-07-06T08:26:08;16.50;;;11.80;;
24277;SDS011;12394;42.692;23.314;2022-07-06T08:28:33;14.87;;;11.73;;
24277;SDS011;12394;42.692;23.314;2022-07-06T08:30:58;14.73;;;13.27;;
24277;SDS011;12394;42.692;23.314;2022-07-06T08:33:24;13.00;;;10.87;;
24277;SDS011;12394;42.692;23.314;2022-07-06T08:35:49;15.43;;;10.40;;
24277;SDS011;12394;42.692;23.314;2022-07-06T08:38:14;15.23;;;12.90;;
24277;SDS011;12394;42.692;23.314;2022-07-06T08:40:40;12.80;;;10.83;;
24277;SDS011;12394;42.692;23.314;2022-07-06T08:43:05;10.60;;;9.47;;
24277;SDS011;12394;42.692;23.314;2022-07-06T08:45:31;11.67;;;10.57;;
24277;SDS011;12394;42.692;23.314;2022-07-06T08:47:59;12.30;;;10.60;;
24277;SDS011;12394;42.692;23.314;2022-07-06T08:50:28;12.20;;;10.93;;
24277;SDS011;12394;42.692;23.314;2022-07-06T08:52:53;11.17;;;10.07;;
24277;SDS011;12394;42.692;23.314;2022-07-06T08:55:19;14.10;;;10.30;;
24277;SDS011;12394;42.692;23.314;2022-07-06T08:57:47;12.83;;;9.57;;
24277;SDS011;12394;42.692;23.314;2022-07-06T09:00:13;13.47;;;11.70;;
24277;SDS011;12394;42.692;23.314;2022-07-06T09:02:39;13.37;;;12.07;;
24277;SDS011;12394;42.692;23.314;2022-07-06T09:05:05;14.60;;;12.07;;
24277;SDS011;12394;42.692;23.314;2022-07-06T09:07:31;12.50;;;11.10;;
24277;SDS011;12394;42.692;23.314;2022-07-06T09:09:56;14.33;;;11.50;;
24277;SDS011;12394;42.692;23.314;2022-07-06T09:12:25;12.83;;;11.07;;
24277;SDS011;12394;42.692;23.314;2022-07-06T09:14:51;14.70;;;12.60;;
24277;SDS011;12394;42.692;23.314;2022-07-06T09:17:16;15.27;;;13.20;;
24277;SDS011;12394;42.692;23.314;2022-07-06T09:19:42;12.87;;;10.90;;
24277;SDS011;12394;42.692;23.314;2022-07-06T09:22:10;13.20;;;11.50;;
24277;SDS011;12394;42.692;23.314;2022-07-06T09:24:49;13.37;;;12.07;;
24277;SDS011;12394;42.692;23.314;2022-07-06T09:27:15;13.47;;;11.70;;
24277;SDS011;12394;42.692;23.314;2022-07-06T09:29:41;15.70;;;11.30;;
24277;SDS011;12394;42.692;23.314;2022-07-06T09:32:06;12.07;;;10.80;;
24277;SDS011;12394;42.692;23.314;2022-07-06T09:34:41;11.80;;;10.63;;
24277;SDS011;12394;42.692;23.314;2022-07-06T09:37:07;13.10;;;11.63;;
24277;SDS011;12394;42.692;23.314;2022-07-06T09:39:32;14.63;;;13.13;;
24277;SDS011;12394;42.692;23.314;2022-07-06T09:41:59;13.80;;;11.90;;
24277;SDS011;12394;42.692;23.314;2022-07-06T09:44:31;14.03;;;12.57;;
24277;SDS011;12394;42.692;23.314;2022-07-06T09:47:00;14.57;;;13.07;;
24277;SDS011;12394;42.692;23.314;2022-07-06T09:49:26;15.53;;;13.50;;
24277;SDS011;12394;42.692;23.314;2022-07-06T09:51:53;14.83;;;13.43;;
24277;SDS011;12394;42.692;23.314;2022-07-06T09:54:19;19.43;;;14.20;;
24277;SDS011;12394;42.692;23.314;2022-07-06T09:56:45;16.33;;;14.00;;
24277;SDS011;12394;42.692;23.314;2022-07-06T09:59:16;13.03;;;11.87;;
24277;SDS011;12394;42.692;23.314;2022-07-06T10:01:42;13.83;;;12.53;;
24277;SDS011;12394;42.692;23.314;2022-07-06T10:04:08;16.83;;;13.10;;
24277;SDS011;12394;42.692;23.314;2022-07-06T10:06:34;14.63;;;13.13;;
24277;SDS011;12394;42.692;23.314;2022-07-06T10:09:00;14.53;;;13.03;;
24277;SDS011;12394;42.692;23.314;2022-07-06T10:11:26;14.70;;;13.27;;
24277;SDS011;12394;42.692;23.314;2022-07-06T10:13:54;14.30;;;13.07;;
24277;SDS011;12394;42.692;23.314;2022-07-06T10:16:20;15.25;;;13.68;;
24277;SDS011;12394;42.692;23.314;2022-07-06T10:18:46;14.25;;;12.93;;
24277;SDS011;12394;42.692;23.314;2022-07-06T10:21:12;14.93;;;13.63;;
24277;SDS011;12394;42.692;23.314;2022-07-06T10:23:37;14.90;;;13.05;;
24277;SDS011;12394;42.692;23.314;2022-07-06T10:26:03;14.52;;;13.07;;
24277;SDS011;12394;42.692;23.314;2022-07-06T10:28:29;15.63;;;14.18;;
24277;SDS011;12394;42.692;23.314;2022-07-06T10:30:54;15.40;;;14.10;;
24277;SDS011;12394;42.692;23.314;2022-07-06T10:33:20;16.25;;;14.15;;
24277;SDS011;12394;42.692;23.314;2022-07-06T10:35:46;15.33;;;13.73;;
24277;SDS011;12394;42.692;23.314;2022-07-06T10:38:11;14.43;;;13.10;;
24277;SDS011;12394;42.692;23.314;2022-07-06T10:40:38;14.67;;;13.00;;
24277;SDS011;12394;42.692;23.314;2022-07-06T10:43:23;13.77;;;12.57;;
24277;SDS011;12394;42.692;23.314;2022-07-06T10:45:55;13.70;;;12.20;;
24277;SDS011;12394;42.692;23.314;2022-07-06T10:48:21;14.83;;;12.33;;
24277;SDS011;12394;42.692;23.314;2022-07-06T10:50:48;13.10;;;11.53;;
24277;SDS011;12394;42.692;23.314;2022-07-06T10:53:21;14.83;;;13.33;;
24277;SDS011;12394;42.692;23.314;2022-07-06T10:55:47;15.30;;;13.80;;
24277;SDS011;12394;42.692;23.314;2022-07-06T10:58:15;15.47;;;14.17;;
24277;SDS011;12394;42.692;23.314;2022-07-06T11:00:50;13.03;;;11.63;;
24277;SDS011;12394;42.692;23.314;2022-07-06T11:06:22;12.87;;;11.77;;
24277;SDS011;12394;42.692;23.314;2022-07-06T11:08:46;13.50;;;12.20;;
24277;SDS011;12394;42.692;23.314;2022-07-06T11:11:12;13.20;;;11.90;;
24277;SDS011;12394;42.692;23.314;2022-07-06T11:16:17;14.90;;;13.37;;
24277;SDS011;12394;42.692;23.314;2022-07-06T11:18:49;13.80;;;12.40;;
24277;SDS011;12394;42.692;23.314;2022-07-06T11:21:19;14.93;;;13.30;;
24277;SDS011;12394;42.692;23.314;2022-07-06T11:23:48;13.37;;;12.07;;
24277;SDS011;12394;42.692;23.314;2022-07-06T11:26:14;15.60;;;14.20;;
24277;SDS011;12394;42.692;23.314;2022-07-06T11:28:39;16.77;;;14.43;;
24277;SDS011;12394;42.692;23.314;2022-07-06T11:31:05;15.53;;;14.07;;
24277;SDS011;12394;42.692;23.314;2022-07-06T11:33:30;17.10;;;15.40;;
24277;SDS011;12394;42.692;23.314;2022-07-06T11:38:36;14.63;;;13.10;;
24277;SDS011;12394;42.692;23.314;2022-07-06T11:41:01;13.47;;;11.70;;
24277;SDS011;12394;42.692;23.314;2022-07-06T11:43:27;13.40;;;12.17;;
24277;SDS011;12394;42.692;23.314;2022-07-06T11:45:52;15.60;;;13.53;;
24277;SDS011;12394;42.692;23.314;2022-07-06T11:48:17;15.97;;;14.57;;
24277;SDS011;12394;42.692;23.314;2022-07-06T11:50:42;16.70;;;14.17;;
24277;SDS011;12394;42.692;23.314;2022-07-06T11:53:08;14.97;;;13.57;;
24277;SDS011;12394;42.692;23.314;2022-07-06T11:55:33;16.13;;;14.30;;
24277;SDS011;12394;42.692;23.314;2022-07-06T11:57:58;16.67;;;15.17;;
24277;SDS011;12394;42.692;23.314;2022-07-06T12:00:25;16.17;;;14.67;;
24277;SDS011;12394;42.692;23.314;2022-07-06T12:03:00;15.97;;;14.53;;
24277;SDS011;12394;42.692;23.314;2022-07-06T12:05:31;16.60;;;14.97;;
24277;SDS011;12394;42.692;23.314;2022-07-06T12:08:05;16.60;;;14.90;;
24277;SDS011;12394;42.692;23.314;2022-07-06T12:10:31;15.27;;;13.20;;
24277;SDS011;12394;42.692;23.314;2022-07-06T12:13:02;15.33;;;13.73;;
24277;SDS011;12394;42.692;23.314;2022-07-06T12:15:27;12.20;;;11.10;;
24277;SDS011;12394;42.692;23.314;2022-07-06T12:17:52;17.70;;;13.73;;
24277;SDS011;12394;42.692;23.314;2022-07-06T12:20:17;13.47;;;12.00;;
24277;SDS011;12394;42.692;23.314;2022-07-06T12:22:44;12.80;;;11.50;;
24277;SDS011;12394;42.692;23.314;2022-07-06T12:25:09;14.03;;;12.63;;
24277;SDS011;12394;42.692;23.314;2022-07-06T12:27:34;15.20;;;11.83;;
24277;SDS011;12394;42.692;23.314;2022-07-06T12:30:09;12.17;;;11.07;;
24277;SDS011;12394;42.692;23.314;2022-07-06T12:32:35;12.90;;;11.73;;
24277;SDS011;12394;42.692;23.314;2022-07-06T12:35:08;12.97;;;11.77;;
24277;SDS011;12394;42.692;23.314;2022-07-06T12:37:33;17.70;;;15.83;;
24277;SDS011;12394;42.692;23.314;2022-07-06T12:39:59;12.97;;;11.70;;
24277;SDS011;12394;42.692;23.314;2022-07-06T12:42:25;11.27;;;10.30;;
24277;SDS011;12394;42.692;23.314;2022-07-06T12:44:51;14.80;;;10.83;;
24277;SDS011;12394;42.692;23.314;2022-07-06T12:47:18;12.20;;;10.00;;
24277;SDS011;12394;42.692;23.314;2022-07-06T12:49:43;13.10;;;10.60;;
24277;SDS011;12394;42.692;23.314;2022-07-06T12:52:09;14.00;;;10.03;;
24277;SDS011;12394;42.692;23.314;2022-07-06T12:54:42;11.13;;;10.00;;
24277;SDS011;12394;42.692;23.314;2022-07-06T12:57:18;12.13;;;7.67;;
24277;SDS011;12394;42.692;23.314;2022-07-06T13:02:19;10.00;;;9.07;;
24277;SDS011;12394;42.692;23.314;2022-07-06T13:04:53;9.30;;;8.40;;
24277;SDS011;12394;42.692;23.314;2022-07-06T13:07:19;9.40;;;7.80;;
24277;SDS011;12394;42.692;23.314;2022-07-06T13:09:45;8.70;;;7.43;;
24277;SDS011;12394;42.692;23.314;2022-07-06T13:12:10;7.07;;;6.47;;
24277;SDS011;12394;42.692;23.314;2022-07-06T13:14:35;9.90;;;7.63;;
24277;SDS011;12394;42.692;23.314;2022-07-06T13:17:01;11.23;;;5.70;;
24277;SDS011;12394;42.692;23.314;2022-07-06T13:19:26;6.07;;;5.47;;
24277;SDS011;12394;42.692;23.314;2022-07-06T13:21:51;6.20;;;5.67;;
24277;SDS011;12394;42.692;23.314;2022-07-06T13:24:16;6.87;;;5.70;;
24277;SDS011;12394;42.692;23.314;2022-07-06T13:26:42;5.73;;;5.03;;
24277;SDS011;12394;42.692;23.314;2022-07-06T13:29:07;4.47;;;4.07;;
24277;SDS011;12394;42.692;23.314;2022-07-06T13:31:34;5.40;;;4.33;;
24277;SDS011;12394;42.692;23.314;2022-07-06T13:34:00;5.20;;;4.70;;
24277;SDS011;12394;42.692;23.314;2022-07-06T13:36:25;4.20;;;3.87;;
24277;SDS011;12394;42.692;23.314;2022-07-06T13:38:50;6.73;;;4.13;;
24277;SDS011;12394;42.692;23.314;2022-07-06T13:41:16;4.03;;;3.70;;
24277;SDS011;12394;42.692;23.314;2022-07-06T13:43:41;4.13;;;3.83;;
24277;SDS011;12394;42.692;23.314;2022-07-06T13:46:07;8.13;;;3.97;;
24277;SDS011;12394;42.692;23.314;2022-07-06T13:48:32;3.77;;;3.47;;
24277;SDS011;12394;42.692;23.314;2022-07-06T13:50:58;3.80;;;3.50;;
24277;SDS011;12394;42.692;23.314;2022-07-06T13:53:24;3.37;;;3.07;;
24277;SDS011;12394;42.692;23.314;2022-07-06T13:55:50;4.10;;;3.57;;
24277;SDS011;12394;42.692;23.314;2022-07-06T13:58:15;5.53;;;4.20;;
24277;SDS011;12394;42.692;23.314;2022-07-06T14:00:40;4.57;;;4.17;;
24277;SDS011;12394;42.692;23.314;2022-07-06T14:03:06;6.03;;;3.23;;
24277;SDS011;12394;42.692;23.314;2022-07-06T14:05:31;6.13;;;3.23;;
24277;SDS011;12394;42.692;23.314;2022-07-06T14:07:57;3.90;;;3.50;;
24277;SDS011;12394;42.692;23.314;2022-07-06T14:10:22;7.17;;;3.47;;
24277;SDS011;12394;42.692;23.314;2022-07-06T14:12:47;5.63;;;3.13;;
24277;SDS011;12394;42.692;23.314;2022-07-06T14:15:13;6.17;;;3.10;;
24277;SDS011;12394;42.692;23.314;2022-07-06T14:17:38;4.03;;;2.87;;